sensor_id;sensor_type;location;lat;lon;timestamp;pressure;altitude;pressure_sealevel;temperature;humidity
8039;BME280;4062;49.844;8.120;2023-06-14T00:01:03;98971.06;;;18.47;60.85
8039;BME280;4062;49.844;8.120;2023-06-14T00:03:07;98967.41;;;18.48;60.59
8039;BME280;4062;49.844;8.120;2023-06-14T00:05:12;98972.75;;;18.48;60.73
8039;BME280;4062;49.844;8.120;2023-06-14T00:07:14;98966.56;;;18.47;60.74
8039;BME280;4062;49.844;8.120;2023-06-14T00:09:17;98968.28;;;18.48;60.68
8039;BME280;4062;49.844;8.120;2023-06-14T00:11:18;98960.34;;;18.47;60.60
8039;BME280;4062;49.844;8.120;2023-06-14T00:13:20;98970.06;;;18.48;60.73
8039;BME280;4062;49.844;8.120;2023-06-14T00:15:21;98963.88;;;18.47;60.76
8039;BME280;4062;49.844;8.120;2023-06-14T00:17:22;98966.56;;;18.47;60.79
8039;BME280;4062;49.844;8.120;2023-06-14T00:19:24;98967.41;;;18.48;60.53
8039;BME280;4062;49.844;8.120;2023-06-14T00:21:26;98967.41;;;18.48;60.65
8039;BME280;4062;49.844;8.120;2023-06-14T00:23:29;98969.22;;;18.47;60.55
8039;BME280;4062;49.844;8.120;2023-06-14T00:25:30;98970.06;;;18.48;60.78
8039;BME280;4062;49.844;8.120;2023-06-14T00:27:32;98967.50;;;18.46;60.54
8039;BME280;4062;49.844;8.120;2023-06-14T00:29:33;98960.34;;;18.47;60.76
8039;BME280;4062;49.844;8.120;2023-06-14T00:31:34;98962.03;;;18.48;60.74
8039;BME280;4062;49.844;8.120;2023-06-14T00:33:35;98960.34;;;18.47;60.77
8039;BME280;4062;49.844;8.120;2023-06-14T00:35:36;98964.72;;;18.48;60.69
8039;BME280;4062;49.844;8.120;2023-06-14T00:37:39;98966.56;;;18.47;60.85
8039;BME280;4062;49.844;8.120;2023-06-14T00:39:40;98957.56;;;18.48;60.75
8039;BME280;4062;49.844;8.120;2023-06-14T00:41:41;98967.41;;;18.48;60.47
8039;BME280;4062;49.844;8.120;2023-06-14T00:43:42;98963.88;;;18.47;60.57
8039;BME280;4062;49.844;8.120;2023-06-14T00:45:44;98966.56;;;18.47;60.62
8039;BME280;4062;49.844;8.120;2023-06-14T00:47:46;98966.56;;;18.47;60.75
8039;BME280;4062;49.844;8.120;2023-06-14T00:49:50;98967.41;;;18.48;60.80
8039;BME280;4062;49.844;8.120;2023-06-14T00:51:52;98965.72;;;18.47;60.77
8039;BME280;4062;49.844;8.120;2023-06-14T00:53:53;98961.19;;;18.47;60.59
8039;BME280;4062;49.844;8.120;2023-06-14T00:55:55;98961.19;;;18.47;60.94
8039;BME280;4062;49.844;8.120;2023-06-14T00:57:57;98966.56;;;18.47;60.80
8039;BME280;4062;49.844;8.120;2023-06-14T00:59:58;98966.56;;;18.47;60.56
8039;BME280;4062;49.844;8.120;2023-06-14T01:02:18;98972.75;;;18.48;60.76
8039;BME280;4062;49.844;8.120;2023-06-14T01:04:39;98967.41;;;18.48;60.62
8039;BME280;4062;49.844;8.120;2023-06-14T01:09:24;98971.91;;;18.47;60.66
8039;BME280;4062;49.844;8.120;2023-06-14T01:11:46;98972.75;;;18.48;60.53
8039;BME280;4062;49.844;8.120;2023-06-14T01:13:51;98980.78;;;18.48;60.60
8039;BME280;4062;49.844;8.120;2023-06-14T01:15:57;98987.94;;;18.47;60.68
8039;BME280;4062;49.844;8.120;2023-06-14T01:17:59;98981.75;;;18.47;60.57
8039;BME280;4062;49.844;8.120;2023-06-14T01:20:04;98977.25;;;18.47;60.71
8039;BME280;4062;49.844;8.120;2023-06-14T01:22:11;98981.75;;;18.47;60.64
8039;BME280;4062;49.844;8.120;2023-06-14T01:24:12;98983.44;;;18.48;60.95
8039;BME280;4062;49.844;8.120;2023-06-14T01:26:13;98980.78;;;18.48;60.61
8039;BME280;4062;49.844;8.120;2023-06-14T01:28:17;98978.19;;;18.46;60.58
8039;BME280;4062;49.844;8.120;2023-06-14T01:30:20;98979.09;;;18.47;60.68
8039;BME280;4062;49.844;8.120;2023-06-14T01:32:26;98982.59;;;18.47;60.65
8039;BME280;4062;49.844;8.120;2023-06-14T01:34:28;98979.94;;;18.47;60.75
8039;BME280;4062;49.844;8.120;2023-06-14T01:36:29;98987.94;;;18.47;60.79
8039;BME280;4062;49.844;8.120;2023-06-14T01:38:32;98987.94;;;18.47;60.60
8039;BME280;4062;49.844;8.120;2023-06-14T01:40:35;98982.59;;;18.47;60.79
8039;BME280;4062;49.844;8.120;2023-06-14T01:42:38;98990.63;;;18.47;60.50
8039;BME280;4062;49.844;8.120;2023-06-14T01:44:41;98987.94;;;18.47;60.80
8039;BME280;4062;49.844;8.120;2023-06-14T01:46:44;98987.09;;;18.47;60.87
8039;BME280;4062;49.844;8.120;2023-06-14T01:48:46;98984.44;;;18.47;60.85
8039;BME280;4062;49.844;8.120;2023-06-14T01:50:49;98982.59;;;18.47;60.89
8039;BME280;4062;49.844;8.120;2023-06-14T01:52:50;98981.75;;;18.47;60.70
8039;BME280;4062;49.844;8.120;2023-06-14T01:54:52;98983.44;;;18.48;60.66
8039;BME280;4062;49.844;8.120;2023-06-14T01:56:53;98985.28;;;18.47;60.50
8039;BME280;4062;49.844;8.120;2023-06-14T01:58:55;98981.75;;;18.47;60.63
8039;BME280;4062;49.844;8.120;2023-06-14T02:00:56;98987.09;;;18.47;60.73
8039;BME280;4062;49.844;8.120;2023-06-14T02:02:59;98987.09;;;18.47;60.71
8039;BME280;4062;49.844;8.120;2023-06-14T02:05:01;98987.94;;;18.47;60.93
8039;BME280;4062;49.844;8.120;2023-06-14T02:07:02;98987.09;;;18.47;61.00
8039;BME280;4062;49.844;8.120;2023-06-14T02:09:04;98979.09;;;18.47;60.54
8039;BME280;4062;49.844;8.120;2023-06-14T02:11:05;98984.44;;;18.47;60.91
8039;BME280;4062;49.844;8.120;2023-06-14T02:13:06;98987.94;;;18.47;60.63
8039;BME280;4062;49.844;8.120;2023-06-14T02:15:08;98984.44;;;18.47;60.64
8039;BME280;4062;49.844;8.120;2023-06-14T02:17:10;98992.47;;;18.47;60.75
8039;BME280;4062;49.844;8.120;2023-06-14T02:19:11;98989.78;;;18.47;60.77
8039;BME280;4062;49.844;8.120;2023-06-14T02:21:12;98995.97;;;18.47;60.55
8039;BME280;4062;49.844;8.120;2023-06-14T02:23:14;98997.81;;;18.47;60.67
8039;BME280;4062;49.844;8.120;2023-06-14T02:25:15;98998.66;;;18.47;60.79
8039;BME280;4062;49.844;8.120;2023-06-14T02:27:17;98996.94;;;18.46;60.70
8039;BME280;4062;49.844;8.120;2023-06-14T02:29:19;98993.31;;;18.47;60.93
8039;BME280;4062;49.844;8.120;2023-06-14T02:31:20;98989.78;;;18.47;60.60
8039;BME280;4062;49.844;8.120;2023-06-14T02:33:23;98990.63;;;18.47;60.62
8039;BME280;4062;49.844;8.120;2023-06-14T02:35:27;98987.09;;;18.47;60.64
8039;BME280;4062;49.844;8.120;2023-06-14T02:37:30;98995.13;;;18.47;60.71
8039;BME280;4062;49.844;8.120;2023-06-14T02:39:32;98989.78;;;18.47;60.62
8039;BME280;4062;49.844;8.120;2023-06-14T02:41:33;98997.81;;;18.47;60.81
8039;BME280;4062;49.844;8.120;2023-06-14T02:43:34;98996.94;;;18.46;60.80
8039;BME280;4062;49.844;8.120;2023-06-14T02:45:36;98997.81;;;18.47;60.89
8039;BME280;4062;49.844;8.120;2023-06-14T02:47:37;98995.13;;;18.47;60.67
8039;BME280;4062;49.844;8.120;2023-06-14T02:49:39;98995.13;;;18.47;60.75
8039;BME280;4062;49.844;8.120;2023-06-14T02:51:41;98990.63;;;18.47;60.85
8039;BME280;4062;49.844;8.120;2023-06-14T02:53:42;98987.09;;;18.47;60.73
8039;BME280;4062;49.844;8.120;2023-06-14T02:55:45;99003.16;;;18.47;60.80
8039;BME280;4062;49.844;8.120;2023-06-14T02:57:48;99003.16;;;18.47;60.64
8039;BME280;4062;49.844;8.120;2023-06-14T02:59:49;98999.59;;;18.46;60.86
8039;BME280;4062;49.844;8.120;2023-06-14T03:01:51;99000.47;;;18.47;60.66
8039;BME280;4062;49.844;8.120;2023-06-14T03:03:52;99003.16;;;18.47;60.60
8039;BME280;4062;49.844;8.120;2023-06-14T03:05:54;98995.97;;;18.47;60.61
8039;BME280;4062;49.844;8.120;2023-06-14T03:07:58;99003.16;;;18.47;60.69
8039;BME280;4062;49.844;8.120;2023-06-14T03:10:00;99004.94;;;18.46;60.62
8039;BME280;4062;49.844;8.120;2023-06-14T03:12:01;99008.50;;;18.47;60.89
8039;BME280;4062;49.844;8.120;2023-06-14T03:14:04;99008.50;;;18.47;60.82
8039;BME280;4062;49.844;8.120;2023-06-14T03:16:06;99018.22;;;18.48;60.73
8039;BME280;4062;49.844;8.120;2023-06-14T03:18:10;99013.84;;;18.47;60.83
8039;BME280;4062;49.844;8.120;2023-06-14T03:20:13;99019.22;;;18.47;60.66
8039;BME280;4062;49.844;8.120;2023-06-14T03:22:14;99012.97;;;18.46;60.60
8039;BME280;4062;49.844;8.120;2023-06-14T03:24:16;99015.66;;;18.46;60.95
8039;BME280;4062;49.844;8.120;2023-06-14T03:26:18;99026.34;;;18.46;60.67
8039;BME280;4062;49.844;8.120;2023-06-14T03:28:21;99023.69;;;18.46;60.70
8039;BME280;4062;49.844;8.120;2023-06-14T03:30:23;99027.22;;;18.47;60.86
8039;BME280;4062;49.844;8.120;2023-06-14T03:32:27;99021.88;;;18.47;60.85
8039;BME280;4062;49.844;8.120;2023-06-14T03:34:28;99029.03;;;18.46;60.56
8039;BME280;4062;49.844;8.120;2023-06-14T03:36:30;99024.56;;;18.47;60.77
8039;BME280;4062;49.844;8.120;2023-06-14T03:38:32;99029.91;;;18.47;60.83
8039;BME280;4062;49.844;8.120;2023-06-14T03:40:33;99029.91;;;18.47;60.87
8039;BME280;4062;49.844;8.120;2023-06-14T03:42:37;99031.69;;;18.46;60.81
8039;BME280;4062;49.844;8.120;2023-06-14T03:44:39;99038.78;;;18.47;60.61
8039;BME280;4062;49.844;8.120;2023-06-14T03:46:40;99033.53;;;18.46;60.64
8039;BME280;4062;49.844;8.120;2023-06-14T03:48:42;99041.56;;;18.46;60.69
8039;BME280;4062;49.844;8.120;2023-06-14T03:50:43;99039.72;;;18.46;60.74
8039;BME280;4062;49.844;8.120;2023-06-14T03:52:47;99051.31;;;18.47;60.87
8039;BME280;4062;49.844;8.120;2023-06-14T03:54:51;99046.81;;;18.47;60.53
8039;BME280;4062;49.844;8.120;2023-06-14T03:56:53;99048.69;;;18.45;60.86
8039;BME280;4062;49.844;8.120;2023-06-14T03:58:55;99049.47;;;18.47;60.54
8039;BME280;4062;49.844;8.120;2023-06-14T04:00:59;99051.31;;;18.47;60.87
8039;BME280;4062;49.844;8.120;2023-06-14T04:03:01;99050.44;;;18.46;60.77
8039;BME280;4062;49.844;8.120;2023-06-14T04:05:04;99057.59;;;18.46;60.86
8039;BME280;4062;49.844;8.120;2023-06-14T04:07:11;99059.31;;;18.47;60.63
8039;BME280;4062;49.844;8.120;2023-06-14T04:09:12;99054.81;;;18.47;60.73
8039;BME280;4062;49.844;8.120;2023-06-14T04:11:16;99057.50;;;18.47;60.80
8039;BME280;4062;49.844;8.120;2023-06-14T04:13:17;99066.47;;;18.46;60.80
8039;BME280;4062;49.844;8.120;2023-06-14T04:15:19;99061.13;;;18.46;60.61
8039;BME280;4062;49.844;8.120;2023-06-14T04:17:20;99058.44;;;18.46;60.69
8039;BME280;4062;49.844;8.120;2023-06-14T04:19:21;99064.69;;;18.47;60.81
8039;BME280;4062;49.844;8.120;2023-06-14T04:21:23;99063.81;;;18.46;60.69
8039;BME280;4062;49.844;8.120;2023-06-14T04:23:26;99070.03;;;18.47;60.68
8039;BME280;4062;49.844;8.120;2023-06-14T04:25:29;99072.72;;;18.47;60.81
8039;BME280;4062;49.844;8.120;2023-06-14T04:27:33;99072.72;;;18.47;60.67
8039;BME280;4062;49.844;8.120;2023-06-14T04:29:38;99078.06;;;18.47;60.98
8039;BME280;4062;49.844;8.120;2023-06-14T04:31:45;99074.50;;;18.46;60.66
8039;BME280;4062;49.844;8.120;2023-06-14T04:33:48;99072.72;;;18.47;60.79
8039;BME280;4062;49.844;8.120;2023-06-14T04:35:54;99082.53;;;18.46;60.54
8039;BME280;4062;49.844;8.120;2023-06-14T04:37:58;99074.50;;;18.46;60.85
8039;BME280;4062;49.844;8.120;2023-06-14T04:40:00;99076.34;;;18.46;60.73
8039;BME280;4062;49.844;8.120;2023-06-14T04:42:02;99071.81;;;18.46;60.68
8039;BME280;4062;49.844;8.120;2023-06-14T04:44:05;99076.34;;;18.46;60.73
8039;BME280;4062;49.844;8.120;2023-06-14T04:46:12;99073.66;;;18.46;60.73
8039;BME280;4062;49.844;8.120;2023-06-14T04:48:15;99079.00;;;18.46;60.88
8039;BME280;4062;49.844;8.120;2023-06-14T04:50:20;99079.84;;;18.46;60.91
8039;BME280;4062;49.844;8.120;2023-06-14T04:52:21;99079.00;;;18.46;60.44
8039;BME280;4062;49.844;8.120;2023-06-14T04:54:24;99082.53;;;18.46;60.73
8039;BME280;4062;49.844;8.120;2023-06-14T04:56:26;99083.41;;;18.47;60.63
8039;BME280;4062;49.844;8.120;2023-06-14T04:58:28;99087.88;;;18.46;60.80
8039;BME280;4062;49.844;8.120;2023-06-14T05:00:29;99087.03;;;18.46;60.80
8039;BME280;4062;49.844;8.120;2023-06-14T05:02:34;99082.53;;;18.46;60.83
8039;BME280;4062;49.844;8.120;2023-06-14T05:04:36;99088.75;;;18.47;60.76
8039;BME280;4062;49.844;8.120;2023-06-14T05:06:44;99091.44;;;18.47;60.81
8039;BME280;4062;49.844;8.120;2023-06-14T05:08:46;99089.72;;;18.46;60.92
8039;BME280;4062;49.844;8.120;2023-06-14T05:10:48;99092.38;;;18.46;60.66
8039;BME280;4062;49.844;8.120;2023-06-14T05:12:49;99083.41;;;18.47;60.82
8039;BME280;4062;49.844;8.120;2023-06-14T05:14:53;99091.44;;;18.47;60.63
8039;BME280;4062;49.844;8.120;2023-06-14T05:16:57;99094.09;;;18.47;60.73
8039;BME280;4062;49.844;8.120;2023-06-14T05:18:58;99096.78;;;18.47;60.80
8039;BME280;4062;49.844;8.120;2023-06-14T05:21:00;99091.44;;;18.47;60.77
8039;BME280;4062;49.844;8.120;2023-06-14T05:23:01;99091.44;;;18.47;60.80
8039;BME280;4062;49.844;8.120;2023-06-14T05:25:05;99094.09;;;18.47;60.87
8039;BME280;4062;49.844;8.120;2023-06-14T05:27:07;99100.31;;;18.47;60.62
8039;BME280;4062;49.844;8.120;2023-06-14T05:29:09;99098.56;;;18.46;60.64
8039;BME280;4062;49.844;8.120;2023-06-14T05:31:10;99096.78;;;18.47;60.67
8039;BME280;4062;49.844;8.120;2023-06-14T05:33:12;99102.13;;;18.47;60.55
8039;BME280;4062;49.844;8.120;2023-06-14T05:35:13;99099.47;;;18.47;60.91
8039;BME280;4062;49.844;8.120;2023-06-14T05:37:15;99108.31;;;18.47;60.73
8039;BME280;4062;49.844;8.120;2023-06-14T05:39:17;99108.31;;;18.47;60.82
8039;BME280;4062;49.844;8.120;2023-06-14T05:41:18;99115.50;;;18.47;60.64
8039;BME280;4062;49.844;8.120;2023-06-14T05:43:21;99111.94;;;18.46;60.80
8039;BME280;4062;49.844;8.120;2023-06-14T05:45:23;99118.19;;;18.47;60.82
8039;BME280;4062;49.844;8.120;2023-06-14T05:47:24;99121.69;;;18.47;60.81
8039;BME280;4062;49.844;8.120;2023-06-14T05:49:26;99116.34;;;18.47;60.93
8039;BME280;4062;49.844;8.120;2023-06-14T05:51:28;99120.84;;;18.47;60.68
8039;BME280;4062;49.844;8.120;2023-06-14T05:53:29;99121.69;;;18.47;60.89
8039;BME280;4062;49.844;8.120;2023-06-14T05:55:31;99119.97;;;18.46;60.87
8039;BME280;4062;49.844;8.120;2023-06-14T05:57:32;99123.53;;;18.47;60.66
8039;BME280;4062;49.844;8.120;2023-06-14T05:59:33;99136.81;;;18.48;60.81
8039;BME280;4062;49.844;8.120;2023-06-14T06:01:34;99129.72;;;18.47;60.92
8039;BME280;4062;49.844;8.120;2023-06-14T06:03:37;99131.56;;;18.47;60.55
8039;BME280;4062;49.844;8.120;2023-06-14T06:05:39;99128.88;;;18.47;60.55
8039;BME280;4062;49.844;8.120;2023-06-14T06:07:40;99134.22;;;18.47;60.86
8039;BME280;4062;49.844;8.120;2023-06-14T06:09:42;99131.44;;;18.48;60.65
8039;BME280;4062;49.844;8.120;2023-06-14T06:11:45;99135.91;;;18.48;60.82
8039;BME280;4062;49.844;8.120;2023-06-14T06:13:49;99138.59;;;18.48;60.93
8039;BME280;4062;49.844;8.120;2023-06-14T06:15:51;99143.94;;;18.48;60.86
8039;BME280;4062;49.844;8.120;2023-06-14T06:17:52;99142.16;;;18.48;60.90
8039;BME280;4062;49.844;8.120;2023-06-14T06:19:54;99145.69;;;18.49;60.68
8039;BME280;4062;49.844;8.120;2023-06-14T06:21:56;99146.56;;;18.49;60.81
8039;BME280;4062;49.844;8.120;2023-06-14T06:23:57;99148.28;;;18.50;60.69
8039;BME280;4062;49.844;8.120;2023-06-14T06:26:00;99154.47;;;18.51;60.86
8039;BME280;4062;49.844;8.120;2023-06-14T06:28:02;99150.94;;;18.50;60.71
8039;BME280;4062;49.844;8.120;2023-06-14T06:30:05;99156.31;;;18.50;60.63
8039;BME280;4062;49.844;8.120;2023-06-14T06:32:07;99154.38;;;18.52;60.53
8039;BME280;4062;49.844;8.120;2023-06-14T06:34:08;99162.31;;;18.54;60.74
8039;BME280;4062;49.844;8.120;2023-06-14T06:36:11;99157.72;;;18.56;60.75
8039;BME280;4062;49.844;8.120;2023-06-14T06:38:15;99163.84;;;18.58;60.59
8039;BME280;4062;49.844;8.120;2023-06-14T06:40:17;99164.63;;;18.60;60.40
8039;BME280;4062;49.844;8.120;2023-06-14T06:42:19;99161.84;;;18.62;60.59
8039;BME280;4062;49.844;8.120;2023-06-14T06:44:25;99162.72;;;18.62;60.41
8039;BME280;4062;49.844;8.120;2023-06-14T06:46:33;99168.06;;;18.62;60.58
8039;BME280;4062;49.844;8.120;2023-06-14T06:48:38;99167.13;;;18.63;60.44
8039;BME280;4062;49.844;8.120;2023-06-14T06:50:43;99166.16;;;18.64;60.44
8039;BME280;4062;49.844;8.120;2023-06-14T06:52:45;99168.72;;;18.66;60.26
8039;BME280;4062;49.844;8.120;2023-06-14T06:54:47;99163.28;;;18.67;60.12
8039;BME280;4062;49.844;8.120;2023-06-14T06:56:50;99173.03;;;18.68;60.13
8039;BME280;4062;49.844;8.120;2023-06-14T06:58:52;99169.41;;;18.69;60.26
8039;BME280;4062;49.844;8.120;2023-06-14T07:00:53;99175.53;;;18.71;60.05
8039;BME280;4062;49.844;8.120;2023-06-14T07:02:55;99170.19;;;18.71;60.09
8039;BME280;4062;49.844;8.120;2023-06-14T07:04:58;99177.25;;;18.72;60.05
8039;BME280;4062;49.844;8.120;2023-06-14T07:06:59;99174.56;;;18.72;59.90
8039;BME280;4062;49.844;8.120;2023-06-14T07:09:03;99180.78;;;18.73;59.89
8039;BME280;4062;49.844;8.120;2023-06-14T07:11:06;99186.13;;;18.73;59.91
8039;BME280;4062;49.844;8.120;2023-06-14T07:13:08;99191.47;;;18.73;59.92
8039;BME280;4062;49.844;8.120;2023-06-14T07:15:10;99187.00;;;18.73;60.09
8039;BME280;4062;49.844;8.120;2023-06-14T07:17:23;99187.84;;;18.74;59.89
8039;BME280;4062;49.844;8.120;2023-06-14T07:19:24;99191.38;;;18.74;59.97
8039;BME280;4062;49.844;8.120;2023-06-14T07:21:26;99194.06;;;18.74;59.87
8039;BME280;4062;49.844;8.120;2023-06-14T07:23:28;99185.06;;;18.75;60.13
8039;BME280;4062;49.844;8.120;2023-06-14T07:25:29;99194.94;;;18.75;60.10
8039;BME280;4062;49.844;8.120;2023-06-14T07:27:31;99202.97;;;18.75;60.00
8039;BME280;4062;49.844;8.120;2023-06-14T07:29:32;99193.09;;;18.75;60.08
8039;BME280;4062;49.844;8.120;2023-06-14T07:31:33;99195.78;;;18.75;59.89
8039;BME280;4062;49.844;8.120;2023-06-14T07:33:35;99196.66;;;18.76;60.00
8039;BME280;4062;49.844;8.120;2023-06-14T07:35:36;99200.28;;;18.75;60.03
8039;BME280;4062;49.844;8.120;2023-06-14T07:37:38;99202.00;;;18.76;59.83
8039;BME280;4062;49.844;8.120;2023-06-14T07:39:39;99196.72;;;18.74;59.89
8039;BME280;4062;49.844;8.120;2023-06-14T07:41:40;99205.63;;;18.75;60.08
8039;BME280;4062;49.844;8.120;2023-06-14T07:43:42;99206.47;;;18.75;60.02
8039;BME280;4062;49.844;8.120;2023-06-14T07:45:43;99204.75;;;18.74;60.05
8039;BME280;4062;49.844;8.120;2023-06-14T07:47:44;99212.78;;;18.74;60.01
8039;BME280;4062;49.844;8.120;2023-06-14T07:49:46;99210.09;;;18.74;60.14
8039;BME280;4062;49.844;8.120;2023-06-14T07:51:47;99208.41;;;18.73;60.04
8039;BME280;4062;49.844;8.120;2023-06-14T07:53:49;99203.06;;;18.73;59.96
8039;BME280;4062;49.844;8.120;2023-06-14T07:55:50;99208.31;;;18.75;60.04
8039;BME280;4062;49.844;8.120;2023-06-14T07:57:52;99212.72;;;18.76;59.97
8039;BME280;4062;49.844;8.120;2023-06-14T07:59:53;99209.16;;;18.75;59.95
8039;BME280;4062;49.844;8.120;2023-06-14T08:01:55;99210.09;;;18.74;59.96
8039;BME280;4062;49.844;8.120;2023-06-14T08:03:56;99210.03;;;18.76;60.03
8039;BME280;4062;49.844;8.120;2023-06-14T08:06:01;99211.84;;;18.75;59.93
8039;BME280;4062;49.844;8.120;2023-06-14T08:08:02;99204.75;;;18.74;60.03
8039;BME280;4062;49.844;8.120;2023-06-14T08:10:07;99204.75;;;18.74;60.03
8039;BME280;4062;49.844;8.120;2023-06-14T08:12:08;99207.44;;;18.74;60.20
8039;BME280;4062;49.844;8.120;2023-06-14T08:14:13;99204.75;;;18.74;60.08
8039;BME280;4062;49.844;8.120;2023-06-14T08:16:14;99211.09;;;18.73;59.97
8039;BME280;4062;49.844;8.120;2023-06-14T08:18:16;99211.09;;;18.73;60.18
8039;BME280;4062;49.844;8.120;2023-06-14T08:20:18;99205.75;;;18.73;59.94
8039;BME280;4062;49.844;8.120;2023-06-14T08:22:20;99207.63;;;18.71;59.88
8039;BME280;4062;49.844;8.120;2023-06-14T08:24:23;99211.16;;;18.72;60.28
8039;BME280;4062;49.844;8.120;2023-06-14T08:26:25;99207.63;;;18.71;60.01
8039;BME280;4062;49.844;8.120;2023-06-14T08:28:29;99215.66;;;18.71;60.23
8039;BME280;4062;49.844;8.120;2023-06-14T08:30:32;99204.09;;;18.71;59.87
8039;BME280;4062;49.844;8.120;2023-06-14T08:32:34;99210.31;;;18.71;60.00
8039;BME280;4062;49.844;8.120;2023-06-14T08:34:36;99204.09;;;18.71;60.09
8039;BME280;4062;49.844;8.120;2023-06-14T08:36:38;99206.75;;;18.71;60.22
8039;BME280;4062;49.844;8.120;2023-06-14T08:38:42;99207.63;;;18.71;60.22
8039;BME280;4062;49.844;8.120;2023-06-14T08:40:50;99206.75;;;18.71;60.13
8039;BME280;4062;49.844;8.120;2023-06-14T08:42:53;99208.47;;;18.72;60.07
8039;BME280;4062;49.844;8.120;2023-06-14T08:44:55;99206.75;;;18.71;60.05
8039;BME280;4062;49.844;8.120;2023-06-14T08:46:57;99213.00;;;18.71;59.97
8039;BME280;4062;49.844;8.120;2023-06-14T08:49:01;99211.16;;;18.72;60.07
8039;BME280;4062;49.844;8.120;2023-06-14T08:51:03;99209.38;;;18.72;59.80
8039;BME280;4062;49.844;8.120;2023-06-14T08:53:06;99211.16;;;18.72;60.01
8039;BME280;4062;49.844;8.120;2023-06-14T08:55:12;99212.03;;;18.72;59.97
8039;BME280;4062;49.844;8.120;2023-06-14T08:57:13;99203.06;;;18.73;60.17
8039;BME280;4062;49.844;8.120;2023-06-14T08:59:16;99202.06;;;18.74;60.04
8039;BME280;4062;49.844;8.120;2023-06-14T09:01:19;99198.56;;;18.74;59.98
8039;BME280;4062;49.844;8.120;2023-06-14T09:03:24;99209.25;;;18.74;59.92
8039;BME280;4062;49.844;8.120;2023-06-14T09:05:31;99196.72;;;18.74;59.85
8039;BME280;4062;49.844;8.120;2023-06-14T09:07:32;99203.91;;;18.74;60.23
8039;BME280;4062;49.844;8.120;2023-06-14T09:09:39;99203.06;;;18.73;60.10
8039;BME280;4062;49.844;8.120;2023-06-14T09:11:42;99203.91;;;18.74;59.70
8039;BME280;4062;49.844;8.120;2023-06-14T09:13:44;99211.09;;;18.73;60.15
8039;BME280;4062;49.844;8.120;2023-06-14T09:15:46;99211.94;;;18.74;59.92
8039;BME280;4062;49.844;8.120;2023-06-14T09:17:48;99208.41;;;18.73;59.72
8039;BME280;4062;49.844;8.120;2023-06-14T09:19:49;99214.63;;;18.74;59.97
8039;BME280;4062;49.844;8.120;2023-06-14T09:21:51;99220.06;;;18.72;59.93
8039;BME280;4062;49.844;8.120;2023-06-14T09:23:54;99212.03;;;18.72;59.68
8039;BME280;4062;49.844;8.120;2023-06-14T09:25:56;99219.19;;;18.72;59.68
8039;BME280;4062;49.844;8.120;2023-06-14T09:27:57;99222.75;;;18.72;59.83
8039;BME280;4062;49.844;8.120;2023-06-14T09:29:58;99224.53;;;18.72;59.97
8039;BME280;4062;49.844;8.120;2023-06-14T09:32:00;99224.53;;;18.72;59.88
8039;BME280;4062;49.844;8.120;2023-06-14T09:34:03;99215.66;;;18.71;59.85
8039;BME280;4062;49.844;8.120;2023-06-14T09:36:09;99230.78;;;18.72;59.89
8039;BME280;4062;49.844;8.120;2023-06-14T09:38:10;99234.28;;;18.73;60.00
8039;BME280;4062;49.844;8.120;2023-06-14T09:40:20;99236.97;;;18.73;59.71
8039;BME280;4062;49.844;8.120;2023-06-14T09:42:34;99234.28;;;18.73;59.84
8039;BME280;4062;49.844;8.120;2023-06-14T09:44:36;99237.84;;;18.73;60.07
8039;BME280;4062;49.844;8.120;2023-06-14T09:46:38;99234.19;;;18.74;59.81
8039;BME280;4062;49.844;8.120;2023-06-14T09:48:39;99219.13;;;18.73;59.82
8039;BME280;4062;49.844;8.120;2023-06-14T09:50:46;99228.00;;;18.74;59.78
8039;BME280;4062;49.844;8.120;2023-06-14T09:52:52;99225.31;;;18.74;59.80
8039;BME280;4062;49.844;8.120;2023-06-14T09:55:12;99232.41;;;18.75;59.89
8039;BME280;4062;49.844;8.120;2023-06-14T09:57:22;99222.63;;;18.74;59.96
8039;BME280;4062;49.844;8.120;2023-06-14T09:59:27;99224.47;;;18.73;59.91
8039;BME280;4062;49.844;8.120;2023-06-14T10:01:33;99230.66;;;18.74;59.84
8039;BME280;4062;49.844;8.120;2023-06-14T10:03:35;99228.00;;;18.74;59.86
8039;BME280;4062;49.844;8.120;2023-06-14T10:05:43;99229.81;;;18.73;59.98
8039;BME280;4062;49.844;8.120;2023-06-14T10:07:52;99228.00;;;18.74;59.85
8039;BME280;4062;49.844;8.120;2023-06-14T10:09:59;99230.78;;;18.72;59.95
8039;BME280;4062;49.844;8.120;2023-06-14T10:12:05;99229.81;;;18.73;59.76
8039;BME280;4062;49.844;8.120;2023-06-14T10:14:06;99228.00;;;18.74;59.78
8039;BME280;4062;49.844;8.120;2023-06-14T10:18:25;99228.00;;;18.74;59.89
8039;BME280;4062;49.844;8.120;2023-06-14T10:20:33;99224.38;;;18.75;59.89
8039;BME280;4062;49.844;8.120;2023-06-14T10:22:43;99218.13;;;18.74;59.95
8039;BME280;4062;49.844;8.120;2023-06-14T10:24:46;99228.00;;;18.74;59.90
8039;BME280;4062;49.844;8.120;2023-06-14T10:26:57;99225.31;;;18.74;60.16
8039;BME280;4062;49.844;8.120;2023-06-14T10:29:06;99227.16;;;18.73;59.83
8039;BME280;4062;49.844;8.120;2023-06-14T10:31:12;99230.66;;;18.74;59.79
8039;BME280;4062;49.844;8.120;2023-06-14T10:33:15;99232.50;;;18.73;60.08
8039;BME280;4062;49.844;8.120;2023-06-14T10:35:17;99228.94;;;18.73;59.99
8039;BME280;4062;49.844;8.120;2023-06-14T10:37:19;99222.63;;;18.74;59.70
8039;BME280;4062;49.844;8.120;2023-06-14T10:39:21;99224.47;;;18.73;60.01
8039;BME280;4062;49.844;8.120;2023-06-14T10:41:22;99232.50;;;18.73;59.88
8039;BME280;4062;49.844;8.120;2023-06-14T10:43:24;99230.66;;;18.74;59.90
8039;BME280;4062;49.844;8.120;2023-06-14T10:45:26;99223.59;;;18.73;59.92
8039;BME280;4062;49.844;8.120;2023-06-14T10:47:34;99225.41;;;18.72;60.04
8039;BME280;4062;49.844;8.120;2023-06-14T10:49:49;99228.09;;;18.72;60.10
8039;BME280;4062;49.844;8.120;2023-06-14T10:51:53;99227.22;;;18.72;60.28
8039;BME280;4062;49.844;8.120;2023-06-14T10:53:59;99236.13;;;18.72;59.83
8039;BME280;4062;49.844;8.120;2023-06-14T10:56:06;99234.28;;;18.73;60.18
8039;BME280;4062;49.844;8.120;2023-06-14T10:58:08;99247.69;;;18.73;59.99
8039;BME280;4062;49.844;8.120;2023-06-14T11:00:10;99239.66;;;18.73;60.18
8039;BME280;4062;49.844;8.120;2023-06-14T11:02:39;99239.66;;;18.73;59.96
8039;BME280;4062;49.844;8.120;2023-06-14T11:04:50;99233.44;;;18.72;59.99
8039;BME280;4062;49.844;8.120;2023-06-14T11:06:55;99224.47;;;18.73;60.16
8039;BME280;4062;49.844;8.120;2023-06-14T11:11:30;99226.28;;;18.73;60.16
8039;BME280;4062;49.844;8.120;2023-06-14T11:13:33;99225.41;;;18.72;60.10
8039;BME280;4062;49.844;8.120;2023-06-14T11:15:36;99233.44;;;18.72;59.96
8039;BME280;4062;49.844;8.120;2023-06-14T11:17:38;99228.09;;;18.72;60.19